sensor_id;sensor_type;location;lat;lon;timestamp;pressure;altitude;pressure_sealevel;temperature;humidity
65359;BME280;52491;45.900;6.346;2023-05-25T00:01:17;93654.25;;;24.56;38.90
65359;BME280;52491;45.900;6.346;2023-05-25T00:03:42;93657.69;;;24.57;38.37
65359;BME280;52491;45.900;6.346;2023-05-25T00:06:10;93656.09;;;24.56;38.65
65359;BME280;52491;45.900;6.346;2023-05-25T00:08:37;93649.16;;;24.55;38.71
65359;BME280;52491;45.900;6.346;2023-05-25T00:11:04;93647.28;;;24.55;38.36
65359;BME280;52491;45.900;6.346;2023-05-25T00:13:30;93645.41;;;24.56;38.38
65359;BME280;52491;45.900;6.346;2023-05-25T00:15:55;93647.28;;;24.55;38.39
65359;BME280;52491;45.900;6.346;2023-05-25T00:18:21;93644.91;;;24.54;38.52
65359;BME280;52491;45.900;6.346;2023-05-25T00:20:47;93651.03;;;24.54;38.66
65359;BME280;52491;45.900;6.346;2023-05-25T00:23:12;93650.25;;;24.54;38.41
65359;BME280;52491;45.900;6.346;2023-05-25T00:25:38;93653.69;;;24.54;38.62
65359;BME280;52491;45.900;6.346;2023-05-25T00:28:03;93645.72;;;24.54;38.40
65359;BME280;52491;45.900;6.346;2023-05-25T00:30:29;93652.91;;;24.54;38.26
65359;BME280;52491;45.900;6.346;2023-05-25T00:32:55;93649.97;;;24.55;38.26
65359;BME280;52491;45.900;6.346;2023-05-25T00:35:20;93645.72;;;24.54;38.46
65359;BME280;52491;45.900;6.346;2023-05-25T00:37:46;93651.84;;;24.55;38.46
65359;BME280;52491;45.900;6.346;2023-05-25T00:40:14;93654.50;;;24.55;38.52
65359;BME280;52491;45.900;6.346;2023-05-25T00:42:41;93646.78;;;24.53;38.34
65359;BME280;52491;45.900;6.346;2023-05-25T00:45:08;93650.25;;;24.54;38.43
65359;BME280;52491;45.900;6.346;2023-05-25T00:47:34;93651.28;;;24.53;38.38
65359;BME280;52491;45.900;6.346;2023-05-25T00:50:00;93650.50;;;24.52;38.45
65359;BME280;52491;45.900;6.346;2023-05-25T00:52:26;93656.38;;;24.54;38.38
65359;BME280;52491;45.900;6.346;2023-05-25T00:54:53;93657.44;;;24.53;38.18
65359;BME280;52491;45.900;6.346;2023-05-25T00:57:21;93655.84;;;24.52;38.05
65359;BME280;52491;45.900;6.346;2023-05-25T00:59:50;93665.44;;;24.53;38.38
65359;BME280;52491;45.900;6.346;2023-05-25T01:02:19;93654.25;;;24.51;38.05
65359;BME280;52491;45.900;6.346;2023-05-25T01:04:52;93658.25;;;24.54;37.95
65359;BME280;52491;45.900;6.346;2023-05-25T01:07:22;93657.44;;;24.53;38.22
65359;BME280;52491;45.900;6.346;2023-05-25T01:09:56;93660.91;;;24.54;38.15
65359;BME280;52491;45.900;6.346;2023-05-25T01:12:23;93657.69;;;24.52;38.21
65359;BME280;52491;45.900;6.346;2023-05-25T01:14:52;93659.56;;;24.51;38.28
65359;BME280;52491;45.900;6.346;2023-05-25T01:17:19;93653.44;;;24.51;38.23
65359;BME280;52491;45.900;6.346;2023-05-25T01:19:45;93650.25;;;24.54;38.15
65359;BME280;52491;45.900;6.346;2023-05-25T01:22:42;93648.91;;;24.56;37.59
65359;BME280;52491;45.900;6.346;2023-05-25T01:25:35;93648.09;;;24.56;38.15
65359;BME280;52491;45.900;6.346;2023-05-25T01:30:44;93655.56;;;24.54;37.78
65359;BME280;52491;45.900;6.346;2023-05-25T01:33:11;93644.91;;;24.54;37.62
65359;BME280;52491;45.900;6.346;2023-05-25T01:35:37;93643.03;;;24.54;37.77
65359;BME280;52491;45.900;6.346;2023-05-25T01:38:04;93647.59;;;24.54;37.75
65359;BME280;52491;45.900;6.346;2023-05-25T01:40:30;93651.84;;;24.55;37.76
65359;BME280;52491;45.900;6.346;2023-05-25T01:42:55;93645.97;;;24.53;38.05
65359;BME280;52491;45.900;6.346;2023-05-25T01:45:21;93647.84;;;24.52;38.02
65359;BME280;52491;45.900;6.346;2023-05-25T01:50:50;93636.38;;;24.52;37.71
65359;BME280;52491;45.900;6.346;2023-05-25T01:53:22;93642.78;;;24.51;37.96
65359;BME280;52491;45.900;6.346;2023-05-25T01:55:59;93641.72;;;24.52;37.91
65359;BME280;52491;45.900;6.346;2023-05-25T01:58:27;93638.50;;;24.50;37.57
65359;BME280;52491;45.900;6.346;2023-05-25T02:00:57;93641.16;;;24.50;37.97
65359;BME280;52491;45.900;6.346;2023-05-25T02:03:23;93635.84;;;24.50;37.69
65359;BME280;52491;45.900;6.346;2023-05-25T02:05:49;93636.91;;;24.49;37.68
65359;BME280;52491;45.900;6.346;2023-05-25T02:08:15;93634.78;;;24.51;37.91
65359;BME280;52491;45.900;6.346;2023-05-25T02:10:40;93633.97;;;24.50;37.97
65359;BME280;52491;45.900;6.346;2023-05-25T02:13:06;93628.13;;;24.48;38.02
65359;BME280;52491;45.900;6.346;2023-05-25T02:15:32;93630.50;;;24.45;38.04
65359;BME280;52491;45.900;6.346;2023-05-25T02:17:58;93627.06;;;24.44;37.65
65359;BME280;52491;45.900;6.346;2023-05-25T02:20:25;93628.13;;;24.43;38.05
65359;BME280;52491;45.900;6.346;2023-05-25T02:22:52;93626.25;;;24.44;38.08
65359;BME280;52491;45.900;6.346;2023-05-25T02:25:18;93624.66;;;24.43;38.14
65359;BME280;52491;45.900;6.346;2023-05-25T02:27:43;93628.34;;;24.42;37.68
65359;BME280;52491;45.900;6.346;2023-05-25T02:30:09;93618.50;;;24.42;37.71
65359;BME280;52491;45.900;6.346;2023-05-25T02:32:35;93623.81;;;24.42;37.81
65359;BME280;52491;45.900;6.346;2023-05-25T02:35:02;93620.16;;;24.43;37.65
65359;BME280;52491;45.900;6.346;2023-05-25T02:37:27;93619.31;;;24.43;37.57
65359;BME280;52491;45.900;6.346;2023-05-25T02:39:53;93613.16;;;24.42;37.64
65359;BME280;52491;45.900;6.346;2023-05-25T02:42:19;93614.25;;;24.41;37.76
65359;BME280;52491;45.900;6.346;2023-05-25T02:44:44;93610.78;;;24.41;37.63
65359;BME280;52491;45.900;6.346;2023-05-25T02:47:16;93608.66;;;24.43;37.91
65359;BME280;52491;45.900;6.346;2023-05-25T02:49:44;93609.72;;;24.42;37.66
65359;BME280;52491;45.900;6.346;2023-05-25T02:52:10;93600.94;;;24.41;37.58
65359;BME280;52491;45.900;6.346;2023-05-25T02:54:35;93600.94;;;24.41;37.75
65359;BME280;52491;45.900;6.346;2023-05-25T02:57:04;93603.59;;;24.41;37.76
65359;BME280;52491;45.900;6.346;2023-05-25T02:59:29;93594.81;;;24.41;37.53
65359;BME280;52491;45.900;6.346;2023-05-25T03:01:55;93595.88;;;24.40;37.53
65359;BME280;52491;45.900;6.346;2023-05-25T03:04:21;93592.13;;;24.41;37.59
65359;BME280;52491;45.900;6.346;2023-05-25T03:06:46;93595.59;;;24.41;37.66
65359;BME280;52491;45.900;6.346;2023-05-25T03:09:12;93593.72;;;24.42;37.60
65359;BME280;52491;45.900;6.346;2023-05-25T03:11:38;93593.72;;;24.42;37.46
65359;BME280;52491;45.900;6.346;2023-05-25T03:14:03;93599.34;;;24.40;37.50
65359;BME280;52491;45.900;6.346;2023-05-25T03:16:29;93600.13;;;24.41;37.69
65359;BME280;52491;45.900;6.346;2023-05-25T03:18:55;93600.13;;;24.41;37.44
65359;BME280;52491;45.900;6.346;2023-05-25T03:21:21;93597.72;;;24.39;37.67
65359;BME280;52491;45.900;6.346;2023-05-25T03:23:48;93599.59;;;24.39;37.67
65359;BME280;52491;45.900;6.346;2023-05-25T03:26:14;93599.59;;;24.39;37.99
65359;BME280;52491;45.900;6.346;2023-05-25T03:28:40;93604.13;;;24.38;37.50
65359;BME280;52491;45.900;6.346;2023-05-25T03:31:05;93599.59;;;24.39;37.84
65359;BME280;52491;45.900;6.346;2023-05-25T03:33:31;93604.91;;;24.39;37.65
65359;BME280;52491;45.900;6.346;2023-05-25T03:35:58;93606.78;;;24.38;37.81
65359;BME280;52491;45.900;6.346;2023-05-25T03:38:23;93604.91;;;24.39;37.56
65359;BME280;52491;45.900;6.346;2023-05-25T03:40:49;93600.66;;;24.38;37.65
65359;BME280;52491;45.900;6.346;2023-05-25T03:43:15;93596.13;;;24.38;37.58
65359;BME280;52491;45.900;6.346;2023-05-25T03:45:40;93598.81;;;24.38;37.76
65359;BME280;52491;45.900;6.346;2023-05-25T03:48:06;93606.00;;;24.38;37.66
65359;BME280;52491;45.900;6.346;2023-05-25T03:50:32;93609.47;;;24.38;37.78
65359;BME280;52491;45.900;6.346;2023-05-25T03:52:58;93617.44;;;24.38;37.59
65359;BME280;52491;45.900;6.346;2023-05-25T03:55:24;93615.88;;;24.37;37.43
65359;BME280;52491;45.900;6.346;2023-05-25T03:57:49;93619.31;;;24.38;37.79
65359;BME280;52491;45.900;6.346;2023-05-25T04:00:15;93623.03;;;24.37;37.91
65359;BME280;52491;45.900;6.346;2023-05-25T04:02:41;93631.03;;;24.37;37.42
65359;BME280;52491;45.900;6.346;2023-05-25T04:05:06;93626.78;;;24.35;37.63
65359;BME280;52491;45.900;6.346;2023-05-25T04:07:32;93632.09;;;24.35;37.82
65359;BME280;52491;45.900;6.346;2023-05-25T04:09:58;93630.22;;;24.36;37.58
65359;BME280;52491;45.900;6.346;2023-05-25T04:12:26;93637.44;;;24.35;37.73
65359;BME280;52491;45.900;6.346;2023-05-25T04:14:52;93634.78;;;24.35;37.61
65359;BME280;52491;45.900;6.346;2023-05-25T04:17:17;93637.44;;;24.35;37.55
65359;BME280;52491;45.900;6.346;2023-05-25T04:19:46;93648.88;;;24.36;37.82
65359;BME280;52491;45.900;6.346;2023-05-25T04:22:11;93653.41;;;24.35;37.58
65359;BME280;52491;45.900;6.346;2023-05-25T04:24:40;93650.75;;;24.35;37.83
65359;BME280;52491;45.900;6.346;2023-05-25T04:27:07;93653.41;;;24.35;37.94
65359;BME280;52491;45.900;6.346;2023-05-25T04:29:34;93650.22;;;24.33;37.97
65359;BME280;52491;45.900;6.346;2023-05-25T04:31:59;93647.56;;;24.33;37.77
65359;BME280;52491;45.900;6.346;2023-05-25T04:34:26;93642.22;;;24.33;37.56
65359;BME280;52491;45.900;6.346;2023-05-25T04:36:54;93641.19;;;24.34;37.68
65359;BME280;52491;45.900;6.346;2023-05-25T04:39:20;93648.09;;;24.35;38.01
65359;BME280;52491;45.900;6.346;2023-05-25T04:41:46;93646.75;;;24.33;37.97
65359;BME280;52491;45.900;6.346;2023-05-25T04:44:12;93640.38;;;24.34;38.00
65359;BME280;52491;45.900;6.346;2023-05-25T04:46:38;93643.28;;;24.32;37.69
65359;BME280;52491;45.900;6.346;2023-05-25T04:49:04;93644.09;;;24.33;37.73
65359;BME280;52491;45.900;6.346;2023-05-25T04:51:32;93648.63;;;24.32;38.13
65359;BME280;52491;45.900;6.346;2023-05-25T04:53:58;93647.03;;;24.31;37.76
65359;BME280;52491;45.900;6.346;2023-05-25T04:56:24;93648.63;;;24.32;37.87
65359;BME280;52491;45.900;6.346;2023-05-25T04:58:50;93653.97;;;24.32;38.00
65359;BME280;52491;45.900;6.346;2023-05-25T05:01:17;93649.69;;;24.31;37.89
65359;BME280;52491;45.900;6.346;2023-05-25T05:03:44;93650.50;;;24.32;38.01
65359;BME280;52491;45.900;6.346;2023-05-25T05:06:10;93655.03;;;24.31;37.85
65359;BME280;52491;45.900;6.346;2023-05-25T05:08:35;93656.88;;;24.31;37.80
65359;BME280;52491;45.900;6.346;2023-05-25T05:11:01;93660.34;;;24.31;37.80
65359;BME280;52491;45.900;6.346;2023-05-25T05:13:27;93662.19;;;24.31;38.12
65359;BME280;52491;45.900;6.346;2023-05-25T05:15:53;93666.75;;;24.30;37.92
65359;BME280;52491;45.900;6.346;2023-05-25T05:18:19;93664.88;;;24.31;38.38
65359;BME280;52491;45.900;6.346;2023-05-25T05:20:44;93673.69;;;24.31;38.27
65359;BME280;52491;45.900;6.346;2023-05-25T05:23:10;93679.00;;;24.31;38.06
65359;BME280;52491;45.900;6.346;2023-05-25T05:25:36;93678.19;;;24.31;38.38
65359;BME280;52491;45.900;6.346;2023-05-25T05:28:02;93677.41;;;24.30;38.33
65359;BME280;52491;45.900;6.346;2023-05-25T05:30:28;93687.00;;;24.31;38.24
65359;BME280;52491;45.900;6.346;2023-05-25T05:32:54;93684.59;;;24.30;38.31
65359;BME280;52491;45.900;6.346;2023-05-25T05:35:21;93684.59;;;24.30;38.31
65359;BME280;52491;45.900;6.346;2023-05-25T05:37:47;93692.88;;;24.28;38.38
65359;BME280;52491;45.900;6.346;2023-05-25T05:40:13;93693.66;;;24.29;38.31
65359;BME280;52491;45.900;6.346;2023-05-25T05:42:38;93689.13;;;24.29;38.81
65359;BME280;52491;45.900;6.346;2023-05-25T05:45:05;93691.78;;;24.29;38.39
65359;BME280;52491;45.900;6.346;2023-05-25T05:47:30;93690.44;;;24.27;38.04
65359;BME280;52491;45.900;6.346;2023-05-25T05:49:56;93701.09;;;24.27;38.29
65359;BME280;52491;45.900;6.346;2023-05-25T05:52:22;93694.72;;;24.28;38.45
65359;BME280;52491;45.900;6.346;2023-05-25T05:54:47;93692.31;;;24.26;38.06
65359;BME280;52491;45.900;6.346;2023-05-25T05:57:13;93702.44;;;24.24;37.87
65359;BME280;52491;45.900;6.346;2023-05-25T05:59:38;93700.84;;;24.23;37.85
65359;BME280;52491;45.900;6.346;2023-05-25T06:02:04;93703.50;;;24.23;37.84
65359;BME280;52491;45.900;6.346;2023-05-25T06:04:31;93706.72;;;24.20;37.27
65359;BME280;52491;45.900;6.346;2023-05-25T06:06:57;93702.44;;;24.19;37.28
65359;BME280;52491;45.900;6.346;2023-05-25T06:09:23;93698.72;;;24.20;37.33
65359;BME280;52491;45.900;6.346;2023-05-25T06:11:50;93701.09;;;24.22;37.89
65359;BME280;52491;45.900;6.346;2023-05-25T06:14:16;93711.75;;;24.22;37.72
65359;BME280;52491;45.900;6.346;2023-05-25T06:16:41;93707.22;;;24.22;37.65
65359;BME280;52491;45.900;6.346;2023-05-25T06:19:07;93709.88;;;24.22;37.71
65359;BME280;52491;45.900;6.346;2023-05-25T06:21:33;93716.28;;;24.21;37.86
65359;BME280;52491;45.900;6.346;2023-05-25T06:23:59;93712.56;;;24.22;37.73
65359;BME280;52491;45.900;6.346;2023-05-25T06:26:24;93715.22;;;24.22;37.82
65359;BME280;52491;45.900;6.346;2023-05-25T06:28:51;93711.50;;;24.23;37.66
65359;BME280;52491;45.900;6.346;2023-05-25T06:31:17;93715.22;;;24.22;37.85
65359;BME280;52491;45.900;6.346;2023-05-25T06:33:43;93720.53;;;24.22;37.66
65359;BME280;52491;45.900;6.346;2023-05-25T06:36:08;93728.28;;;24.24;37.71
65359;BME280;52491;45.900;6.346;2023-05-25T06:38:35;93720.28;;;24.24;37.90
65359;BME280;52491;45.900;6.346;2023-05-25T06:41:00;93724.81;;;24.23;37.71
65359;BME280;52491;45.900;6.346;2023-05-25T06:43:28;93730.94;;;24.24;37.98
65359;BME280;52491;45.900;6.346;2023-05-25T06:45:53;93729.06;;;24.24;38.04
65359;BME280;52491;45.900;6.346;2023-05-25T06:48:19;93733.63;;;24.24;37.70
65359;BME280;52491;45.900;6.346;2023-05-25T06:50:45;93740.81;;;24.23;38.00
65359;BME280;52491;45.900;6.346;2023-05-25T06:53:11;93741.59;;;24.24;37.67
65359;BME280;52491;45.900;6.346;2023-05-25T06:55:36;93737.88;;;24.25;38.01
65359;BME280;52491;45.900;6.346;2023-05-25T06:58:02;93739.72;;;24.24;37.75
65359;BME280;52491;45.900;6.346;2023-05-25T07:00:28;93743.19;;;24.25;37.95
65359;BME280;52491;45.900;6.346;2023-05-25T07:02:53;93742.41;;;24.24;38.16
65359;BME280;52491;45.900;6.346;2023-05-25T07:05:19;93745.06;;;24.24;37.84
65359;BME280;52491;45.900;6.346;2023-05-25T07:07:44;93743.19;;;24.25;37.84
65359;BME280;52491;45.900;6.346;2023-05-25T07:10:10;93751.19;;;24.25;37.72
65359;BME280;52491;45.900;6.346;2023-05-25T07:12:36;93754.66;;;24.25;38.16
65359;BME280;52491;45.900;6.346;2023-05-25T07:15:01;93763.72;;;24.24;37.79
65359;BME280;52491;45.900;6.346;2023-05-25T07:17:27;93765.28;;;24.25;38.10
65359;BME280;52491;45.900;6.346;2023-05-25T07:19:55;93760.78;;;24.26;37.86
65359;BME280;52491;45.900;6.346;2023-05-25T07:22:21;93758.38;;;24.24;37.98
65359;BME280;52491;45.900;6.346;2023-05-25T07:24:48;93763.72;;;24.24;37.81
65359;BME280;52491;45.900;6.346;2023-05-25T07:27:14;93765.28;;;24.25;37.76
65359;BME280;52491;45.900;6.346;2023-05-25T07:29:39;93768.78;;;24.26;37.90
65359;BME280;52491;45.900;6.346;2023-05-25T07:32:05;93775.94;;;24.25;37.95
65359;BME280;52491;45.900;6.346;2023-05-25T07:34:32;93777.81;;;24.25;37.99
65359;BME280;52491;45.900;6.346;2023-05-25T07:36:58;93781.28;;;24.25;37.77
65359;BME280;52491;45.900;6.346;2023-05-25T07:39:24;93787.69;;;24.24;38.11
65359;BME280;52491;45.900;6.346;2023-05-25T07:41:49;93796.47;;;24.25;37.88
65359;BME280;52491;45.900;6.346;2023-05-25T07:44:15;93794.88;;;24.24;37.84
65359;BME280;52491;45.900;6.346;2023-05-25T07:46:42;93795.69;;;24.24;37.88
65359;BME280;52491;45.900;6.346;2023-05-25T07:49:07;93800.22;;;24.24;37.84
65359;BME280;52491;45.900;6.346;2023-05-25T07:51:38;93797.53;;;24.24;37.85
65359;BME280;52491;45.900;6.346;2023-05-25T07:54:03;93803.13;;;24.22;38.12
65359;BME280;52491;45.900;6.346;2023-05-25T07:56:29;93806.34;;;24.24;38.15
65359;BME280;52491;45.900;6.346;2023-05-25T07:58:54;93806.34;;;24.24;38.37
65359;BME280;52491;45.900;6.346;2023-05-25T08:01:21;93803.66;;;24.24;38.12
65359;BME280;52491;45.900;6.346;2023-05-25T08:03:47;93798.88;;;24.26;37.84
65359;BME280;52491;45.900;6.346;2023-05-25T08:06:12;93806.09;;;24.26;38.15
65359;BME280;52491;45.900;6.346;2023-05-25T08:08:38;93810.59;;;24.25;38.24
65359;BME280;52491;45.900;6.346;2023-05-25T08:11:03;93812.44;;;24.25;38.17
65359;BME280;52491;45.900;6.346;2023-05-25T08:13:29;93807.91;;;24.25;38.11
65359;BME280;52491;45.900;6.346;2023-05-25T08:15:55;93805.81;;;24.27;37.97
65359;BME280;52491;45.900;6.346;2023-05-25T08:18:20;93811.13;;;24.27;37.88
65359;BME280;52491;45.900;6.346;2023-05-25T08:20:46;93810.34;;;24.27;38.17
65359;BME280;52491;45.900;6.346;2023-05-25T08:23:12;93819.13;;;24.27;37.92
65359;BME280;52491;45.900;6.346;2023-05-25T08:25:37;93817.53;;;24.26;38.27
65359;BME280;52491;45.900;6.346;2023-05-25T08:28:03;93821.78;;;24.27;38.09
65359;BME280;52491;45.900;6.346;2023-05-25T08:30:28;93822.59;;;24.28;38.29
65359;BME280;52491;45.900;6.346;2023-05-25T08:32:54;93815.41;;;24.28;38.22
65359;BME280;52491;45.900;6.346;2023-05-25T08:35:20;93813.00;;;24.27;38.23
65359;BME280;52491;45.900;6.346;2023-05-25T08:37:45;93812.19;;;24.26;38.22
65359;BME280;52491;45.900;6.346;2023-05-25T08:40:14;93811.94;;;24.28;38.29
65359;BME280;52491;45.900;6.346;2023-05-25T08:42:43;93811.13;;;24.27;38.36
65359;BME280;52491;45.900;6.346;2023-05-25T08:45:10;93812.75;;;24.28;38.21
65359;BME280;52491;45.900;6.346;2023-05-25T08:47:42;93814.34;;;24.29;38.43
65359;BME280;52491;45.900;6.346;2023-05-25T08:50:09;93817.00;;;24.29;38.27
65359;BME280;52491;45.900;6.346;2023-05-25T08:52:38;93821.25;;;24.30;38.08
65359;BME280;52491;45.900;6.346;2023-05-25T08:55:05;93815.13;;;24.30;38.42
65359;BME280;52491;45.900;6.346;2023-05-25T08:58:04;93818.59;;;24.30;38.21
65359;BME280;52491;45.900;6.346;2023-05-25T09:00:33;93817.00;;;24.29;38.33
65359;BME280;52491;45.900;6.346;2023-05-25T09:03:08;93820.47;;;24.30;38.58
65359;BME280;52491;45.900;6.346;2023-05-25T09:05:36;93823.91;;;24.30;38.33
65359;BME280;52491;45.900;6.346;2023-05-25T09:08:05;93825.53;;;24.31;38.32
65359;BME280;52491;45.900;6.346;2023-05-25T09:10:33;93819.38;;;24.31;38.33
65359;BME280;52491;45.900;6.346;2023-05-25T09:13:00;93829.78;;;24.32;38.63
65359;BME280;52491;45.900;6.346;2023-05-25T09:15:26;93827.13;;;24.32;38.19
65359;BME280;52491;45.900;6.346;2023-05-25T09:17:52;93820.72;;;24.33;38.37
65359;BME280;52491;45.900;6.346;2023-05-25T09:20:18;93820.72;;;24.33;38.24
65359;BME280;52491;45.900;6.346;2023-05-25T09:22:45;93825.00;;;24.34;38.20
65359;BME280;52491;45.900;6.346;2023-05-25T09:25:13;93825.00;;;24.34;38.40
65359;BME280;52491;45.900;6.346;2023-05-25T09:27:40;93823.16;;;24.35;38.37
65359;BME280;52491;45.900;6.346;2023-05-25T09:30:09;93817.53;;;24.37;38.67
65359;BME280;52491;45.900;6.346;2023-05-25T09:32:35;93832.72;;;24.36;38.35
65359;BME280;52491;45.900;6.346;2023-05-25T09:35:13;93833.53;;;24.42;38.38
65359;BME280;52491;45.900;6.346;2023-05-25T09:37:40;93827.41;;;24.36;38.21
65359;BME280;52491;45.900;6.346;2023-05-25T09:40:06;93833.81;;;24.35;38.30
65359;BME280;52491;45.900;6.346;2023-05-25T09:42:34;93835.13;;;24.38;38.33
65359;BME280;52491;45.900;6.346;2023-05-25T09:45:00;93837.81;;;24.38;38.33
65359;BME280;52491;45.900;6.346;2023-05-25T09:47:27;93851.94;;;24.38;38.23
65359;BME280;52491;45.900;6.346;2023-05-25T09:49:53;93852.72;;;24.39;38.30
65359;BME280;52491;45.900;6.346;2023-05-25T09:52:19;93855.44;;;24.44;38.41
65359;BME280;52491;45.900;6.346;2023-05-25T09:54:46;93854.84;;;24.42;38.20
65359;BME280;52491;45.900;6.346;2023-05-25T09:57:14;93857.53;;;24.42;38.43
65359;BME280;52491;45.900;6.346;2023-05-25T09:59:40;93853.25;;;24.41;38.88
65359;BME280;52491;45.900;6.346;2023-05-25T10:02:06;93854.84;;;24.42;38.73
65359;BME280;52491;45.900;6.346;2023-05-25T10:04:32;93845.81;;;24.43;38.42
65359;BME280;52491;45.900;6.346;2023-05-25T10:06:59;93853.81;;;24.43;38.44
65359;BME280;52491;45.900;6.346;2023-05-25T10:09:27;93847.44;;;24.44;38.44
65359;BME280;52491;45.900;6.346;2023-05-25T10:11:58;93853.56;;;24.44;38.42
65359;BME280;52491;45.900;6.346;2023-05-25T10:14:28;93864.22;;;24.44;38.33
65359;BME280;52491;45.900;6.346;2023-05-25T10:16:56;93860.75;;;24.44;38.61
65359;BME280;52491;45.900;6.346;2023-05-25T10:22:17;93848.22;;;24.44;38.59
65359;BME280;52491;45.900;6.346;2023-05-25T10:24:53;93849.03;;;24.45;38.47
65359;BME280;52491;45.900;6.346;2023-05-25T10:27:23;93849.03;;;24.45;38.38
65359;BME280;52491;45.900;6.346;2023-05-25T10:29:49;93848.22;;;24.44;38.47
65359;BME280;52491;45.900;6.346;2023-05-25T10:32:17;93849.03;;;24.45;38.59
65359;BME280;52491;45.900;6.346;2023-05-25T10:34:43;93859.69;;;24.45;38.31
65359;BME280;52491;45.900;6.346;2023-05-25T10:37:10;93857.31;;;24.43;38.50
65359;BME280;52491;45.900;6.346;2023-05-25T10:39:36;93862.34;;;24.45;38.36
65359;BME280;52491;45.900;6.346;2023-05-25T10:42:03;93858.09;;;24.44;38.34
65359;BME280;52491;45.900;6.346;2023-05-25T10:44:31;93867.44;;;24.46;38.77
65359;BME280;52491;45.900;6.346;2023-05-25T10:47:00;93861.31;;;24.46;38.70
65359;BME280;52491;45.900;6.346;2023-05-25T10:49:33;93856.78;;;24.46;38.54
65359;BME280;52491;45.900;6.346;2023-05-25T10:52:00;93866.63;;;24.46;38.54
65359;BME280;52491;45.900;6.346;2023-05-25T10:54:33;93863.69;;;24.47;38.29
65359;BME280;52491;45.900;6.346;2023-05-25T10:57:10;93863.97;;;24.46;38.10
65359;BME280;52491;45.900;6.346;2023-05-25T10:59:41;93859.44;;;24.46;38.14
65359;BME280;52491;45.900;6.346;2023-05-25T11:02:09;93865.00;;;24.45;38.39
65359;BME280;52491;45.900;6.346;2023-05-25T11:04:35;93874.63;;;24.46;38.48
65359;BME280;52491;45.900;6.346;2023-05-25T11:09:30;93877.03;;;24.47;38.55
65359;BME280;52491;45.900;6.346;2023-05-25T11:17:20;93872.22;;;24.49;38.43
65359;BME280;52491;45.900;6.346;2023-05-25T11:19:53;93874.34;;;24.47;38.45
65359;BME280;52491;45.900;6.346;2023-05-25T11:22:21;93877.28;;;24.46;38.37
65359;BME280;52491;45.900;6.346;2023-05-25T11:24:49;93871.97;;;24.46;38.44
65359;BME280;52491;45.900;6.346;2023-05-25T11:27:16;93871.69;;;24.47;38.52
65359;BME280;52491;45.900;6.346;2023-05-25T11:29:49;93873.31;;;24.48;38.64
65359;BME280;52491;45.900;6.346;2023-05-25T11:32:15;93874.34;;;24.47;38.77
65359;BME280;52491;45.900;6.346;2023-05-25T11:34:41;93875.97;;;24.48;38.74
65359;BME280;52491;45.900;6.346;2023-05-25T11:37:12;93875.97;;;24.48;38.70
65359;BME280;52491;45.900;6.346;2023-05-25T11:39:40;93875.97;;;24.48;38.63
65359;BME280;52491;45.900;6.346;2023-05-25T11:42:08;93877.84;;;24.58;38.46
65359;BME280;52491;45.900;6.346;2023-05-25T11:44:36;93867.44;;;24.62;38.65
65359;BME280;52491;45.900;6.346;2023-05-25T11:47:07;93872.28;;;24.65;38.64
65359;BME280;52491;45.900;6.346;2023-05-25T11:49:33;93871.44;;;24.64;38.87
65359;BME280;52491;45.900;6.346;2023-05-25T11:52:04;93866.66;;;24.66;38.62
65359;BME280;52491;45.900;6.346;2023-05-25T11:54:33;93872.28;;;24.65;39.03
65359;BME280;52491;45.900;6.346;2023-05-25T11:56:58;93870.13;;;24.67;38.79
65359;BME280;52491;45.900;6.346;2023-05-25T11:59:26;93877.34;;;24.66;38.59
65359;BME280;52491;45.900;6.346;2023-05-25T12:02:02;93873.34;;;24.69;38.67
65359;BME280;52491;45.900;6.346;2023-05-25T12:04:29;93876.25;;;24.67;39.07
65359;BME280;52491;45.900;6.346;2023-05-25T12:07:02;93878.66;;;24.69;38.50
65359;BME280;52491;45.900;6.346;2023-05-25T12:09:27;93880.53;;;24.68;38.80
65359;BME280;52491;45.900;6.346;2023-05-25T12:11:53;93878.41;;;24.70;39.01
65359;BME280;52491;45.900;6.346;2023-05-25T12:14:19;93881.88;;;24.71;39.00
65359;BME280;52491;45.900;6.346;2023-05-25T12:16:45;93888.25;;;24.70;39.10
65359;BME280;52491;45.900;6.346;2023-05-25T12:19:11;93882.94;;;24.70;38.80
65359;BME280;52491;45.900;6.346;2023-05-25T12:21:39;93883.47;;;24.72;38.98
65359;BME280;52491;45.900;6.346;2023-05-25T12:24:05;93891.75;;;24.70;38.54
65359;BME280;52491;45.900;6.346;2023-05-25T12:26:31;93902.13;;;24.72;38.83
65359;BME280;52491;45.900;6.346;2023-05-25T12:29:03;93888.78;;;24.62;38.83
65359;BME280;52491;45.900;6.346;2023-05-25T12:31:34;93898.91;;;24.60;38.71
65359;BME280;52491;45.900;6.346;2023-05-25T12:34:04;93895.47;;;24.59;38.99
65359;BME280;52491;45.900;6.346;2023-05-25T12:36:47;93895.47;;;24.59;38.78
65359;BME280;52491;45.900;6.346;2023-05-25T12:39:14;93900.25;;;24.57;39.08
65359;BME280;52491;45.900;6.346;2023-05-25T12:41:41;93901.28;;;24.56;39.13
65359;BME280;52491;45.900;6.346;2023-05-25T12:44:27;93900.78;;;24.59;39.10
65359;BME280;52491;45.900;6.346;2023-05-25T12:46:56;93901.84;;;24.58;38.83
65359;BME280;52491;45.900;6.346;2023-05-25T12:51:50;93912.25;;;24.60;39.12
65359;BME280;52491;45.900;6.346;2023-05-25T12:54:16;93907.72;;;24.60;38.67
65359;BME280;52491;45.900;6.346;2023-05-25T12:56:55;93914.63;;;24.61;39.19
65359;BME280;52491;45.900;6.346;2023-05-25T12:59:21;93913.84;;;24.61;39.34
65359;BME280;52491;45.900;6.346;2023-05-25T13:01:47;93907.47;;;24.72;39.22
65359;BME280;52491;45.900;6.346;2023-05-25T13:04:12;93910.69;;;24.74;38.70
65359;BME280;52491;45.900;6.346;2023-05-25T13:06:38;93921.06;;;24.75;38.79
65359;BME280;52491;45.900;6.346;2023-05-25T13:09:03;93913.06;;;24.75;38.57
65359;BME280;52491;45.900;6.346;2023-05-25T13:11:29;93912.53;;;24.78;38.65
65359;BME280;52491;45.900;6.346;2023-05-25T13:13:55;93910.94;;;24.77;38.97
65359;BME280;52491;45.900;6.346;2023-05-25T13:16:21;93909.06;;;24.78;38.92
65359;BME280;52491;45.900;6.346;2023-05-25T13:18:47;93917.88;;;24.78;38.92